createdAt,value
2022-10-18T00:00:48.858Z,5.97
2022-10-18T00:01:51.086Z,5.97
2022-10-18T00:02:53.145Z,5.94
2022-10-18T00:03:55.014Z,5.83
2022-10-18T00:04:56.982Z,5.94
2022-10-18T00:05:59.570Z,5.92
2022-10-18T00:07:01.668Z,5.94
2022-10-18T00:08:04.070Z,5.94
2022-10-18T00:09:06.607Z,5.89
2022-10-18T00:10:10.032Z,5.90
2022-10-18T00:11:12.144Z,5.91
2022-10-18T00:12:14.231Z,5.88
2022-10-18T00:13:16.906Z,5.86
2022-10-18T00:14:19.112Z,5.88
2022-10-18T00:15:20.997Z,5.86
2022-10-18T00:16:23.197Z,5.88
2022-10-18T00:17:25.073Z,5.88
2022-10-18T00:18:28.040Z,5.84
2022-10-18T00:19:29.955Z,5.87
2022-10-18T00:20:31.930Z,5.87
2022-10-18T00:21:34.316Z,5.86
2022-10-18T00:22:40.644Z,5.89
2022-10-18T00:23:43.730Z,5.86
2022-10-18T00:24:45.637Z,5.85
2022-10-18T00:25:47.686Z,5.84
2022-10-18T00:26:49.980Z,5.85
2022-10-18T00:27:51.855Z,5.85
2022-10-18T00:28:59.400Z,5.84
2022-10-18T00:30:01.882Z,5.86
2022-10-18T00:31:16.444Z,5.86
2022-10-18T00:32:18.616Z,5.86
2022-10-18T00:33:20.940Z,5.86
2022-10-18T00:34:22.850Z,5.87
2022-10-18T00:35:25.257Z,5.87
2022-10-18T00:36:29.988Z,5.88
2022-10-18T00:37:32.612Z,5.84
2022-10-18T00:38:35.184Z,5.81
2022-10-18T00:39:37.095Z,5.82
2022-10-18T00:40:39.092Z,5.81
2022-10-18T00:41:41.256Z,5.82
2022-10-18T00:42:43.206Z,5.84
2022-10-18T00:43:58.213Z,5.82
2022-10-18T00:45:19.235Z,5.81
2022-10-18T00:46:22.964Z,5.77
2022-10-18T00:47:25.868Z,5.75
2022-10-18T00:48:27.753Z,5.78
2022-10-18T00:49:36.681Z,5.81
2022-10-18T00:50:39.523Z,5.88
2022-10-18T00:51:48.236Z,5.96
2022-10-18T00:52:56.879Z,5.87
2022-10-18T00:53:59.439Z,5.94
2022-10-18T00:55:03.069Z,5.96
2022-10-18T00:56:05.769Z,5.84
2022-10-18T00:57:08.365Z,5.93
2022-10-18T00:58:13.573Z,5.94
2022-10-18T00:59:17.405Z,5.86
2022-10-18T01:00:20.058Z,5.81
2022-10-18T01:01:24.510Z,5.75
2022-10-18T01:02:25.946Z,5.72
2022-10-18T01:03:27.819Z,5.71
2022-10-18T01:04:29.930Z,5.72
2022-10-18T01:05:32.035Z,5.74
2022-10-18T01:06:54.781Z,5.74
2022-10-18T01:08:06.699Z,5.72
2022-10-18T01:09:15.418Z,5.70
2022-10-18T01:10:30.073Z,5.68
2022-10-18T01:13:20.928Z,5.71
2022-10-18T01:14:25.933Z,5.54
2022-10-18T01:15:31.418Z,5.42
2022-10-18T01:16:39.926Z,5.36
2022-10-18T01:17:57.307Z,5.41
2022-10-18T01:19:05.757Z,5.43
2022-10-18T01:20:14.612Z,5.43
2022-10-18T01:21:26.338Z,5.36
2022-10-18T01:22:37.626Z,5.35
2022-10-18T01:23:58.450Z,5.46
2022-10-18T01:25:32.769Z,5.58
2022-10-18T01:26:41.577Z,5.43
2022-10-18T01:27:59.404Z,5.50
2022-10-18T01:29:29.774Z,5.46
2022-10-18T01:30:35.754Z,5.39
2022-10-18T01:31:41.477Z,5.40
2022-10-18T01:32:55.999Z,5.25
2022-10-18T01:35:07.577Z,5.35
2022-10-18T01:36:16.909Z,5.32
2022-10-18T01:37:21.218Z,5.37
2022-10-18T01:38:25.310Z,5.29
2022-10-18T01:39:33.927Z,5.26
2022-10-18T01:40:37.702Z,5.29
2022-10-18T01:41:42.808Z,5.32
2022-10-18T01:42:47.772Z,5.32
2022-10-18T01:43:53.454Z,5.34
2022-10-18T01:44:56.331Z,5.42
2022-10-18T01:46:00.039Z,5.48
2022-10-18T01:47:04.179Z,5.58
2022-10-18T01:48:06.910Z,5.65
2022-10-18T01:49:08.957Z,5.76
2022-10-18T01:50:12.482Z,5.86
2022-10-18T01:51:16.660Z,5.91
2022-10-18T01:52:18.611Z,6.00
2022-10-18T01:54:43.580Z,6.30
2022-10-18T01:55:49.262Z,6.29
2022-10-18T01:56:58.115Z,6.32
2022-10-18T01:58:09.619Z,6.35
2022-10-18T01:59:40.789Z,6.39
2022-10-18T02:00:43.734Z,6.39
2022-10-18T02:02:04.282Z,6.43
2022-10-18T02:03:15.712Z,6.46
2022-10-18T02:04:22.194Z,6.50
2022-10-18T02:05:46.150Z,6.49
2022-10-18T02:06:51.937Z,6.49
2022-10-18T02:08:12.064Z,6.48
2022-10-18T02:09:11.226Z,6.48
2022-10-18T02:10:27.116Z,6.50
2022-10-18T02:11:32.134Z,6.51
2022-10-18T02:12:37.336Z,6.48
2022-10-18T02:13:42.806Z,6.46
2022-10-18T02:14:46.671Z,6.45
2022-10-18T02:15:52.322Z,6.37
2022-10-18T02:16:58.206Z,6.36
2022-10-18T02:18:03.101Z,6.42
2022-10-18T02:19:11.849Z,6.43
2022-10-18T02:20:18.490Z,6.44
2022-10-18T02:21:21.858Z,6.45
2022-10-18T02:22:27.380Z,6.44
2022-10-18T02:23:31.365Z,6.43
2022-10-18T02:24:37.130Z,6.45
2022-10-18T02:25:39.073Z,6.35
2022-10-18T02:26:41.641Z,6.37
2022-10-18T02:27:44.043Z,6.31
2022-10-18T02:28:46.250Z,6.31
2022-10-18T02:29:49.101Z,6.24
2022-10-18T02:30:54.923Z,6.31
2022-10-18T02:32:09.621Z,6.29
2022-10-18T02:33:21.211Z,6.13
2022-10-18T02:34:27.037Z,6.14
2022-10-18T02:35:32.410Z,6.12
2022-10-18T02:36:38.389Z,5.90
2022-10-18T02:37:42.146Z,5.88
2022-10-18T02:38:46.063Z,5.84
2022-10-18T02:39:50.816Z,5.90
2022-10-18T02:40:53.216Z,5.91
2022-10-18T02:41:56.839Z,5.90
2022-10-18T02:42:59.020Z,5.91
2022-10-18T02:44:01.100Z,5.77
2022-10-18T02:45:05.149Z,5.70
2022-10-18T02:46:07.423Z,5.68
2022-10-18T02:47:10.745Z,5.71
2022-10-18T02:48:12.653Z,5.72
2022-10-18T02:49:15.150Z,5.84
2022-10-18T02:50:18.535Z,5.92
2022-10-18T02:51:20.405Z,5.96
2022-10-18T02:52:22.815Z,6.01
2022-10-18T02:53:24.804Z,5.97
2022-10-18T02:54:26.722Z,5.99
2022-10-18T02:56:31.342Z,5.86
2022-10-18T02:57:33.829Z,5.89
2022-10-18T02:58:36.034Z,5.95
2022-10-18T02:59:38.028Z,5.99
2022-10-18T03:00:40.119Z,6.02
2022-10-18T03:01:42.413Z,6.10
2022-10-18T03:02:44.488Z,6.09
2022-10-18T03:03:46.824Z,6.09
2022-10-18T03:04:49.019Z,6.14
2022-10-18T03:05:52.306Z,6.17
2022-10-18T03:06:54.461Z,6.19
2022-10-18T03:07:56.942Z,6.21
2022-10-18T03:09:00.871Z,6.25
2022-10-18T03:10:03.353Z,6.30
2022-10-18T03:11:05.755Z,6.31
2022-10-18T03:12:07.840Z,6.34
2022-10-18T03:13:10.237Z,6.37
2022-10-18T03:14:12.630Z,6.39
2022-10-18T03:15:14.783Z,6.45
2022-10-18T03:16:17.611Z,6.45
2022-10-18T03:17:21.466Z,6.52
2022-10-18T03:18:23.399Z,6.53
2022-10-18T03:19:25.391Z,6.60
2022-10-18T03:20:27.782Z,6.64
2022-10-18T03:21:29.886Z,6.64
2022-10-18T03:22:31.995Z,6.66
2022-10-18T03:23:34.608Z,6.66
2022-10-18T03:24:36.540Z,6.65
2022-10-18T03:25:40.547Z,6.60
2022-10-18T03:26:42.417Z,6.63
2022-10-18T03:27:44.325Z,6.62
2022-10-18T03:28:46.555Z,6.58
2022-10-18T03:29:48.879Z,6.47
2022-10-18T03:30:51.230Z,6.36
2022-10-18T03:31:53.170Z,6.25
2022-10-18T03:32:55.041Z,6.19
2022-10-18T03:33:57.512Z,6.09
2022-10-18T03:34:59.540Z,6.05
2022-10-18T03:36:01.432Z,5.98
2022-10-18T03:37:05.367Z,6.03
2022-10-18T03:38:07.364Z,6.07
2022-10-18T03:39:10.901Z,5.97
2022-10-18T03:40:14.769Z,5.98
2022-10-18T03:41:16.634Z,5.90
2022-10-18T03:42:18.518Z,5.85
2022-10-18T03:43:20.526Z,5.84
2022-10-18T03:44:22.433Z,5.80
2022-10-18T03:45:28.888Z,5.76
2022-10-18T03:46:29.337Z,5.74
2022-10-18T03:47:31.445Z,5.69
2022-10-18T03:48:33.534Z,5.66
2022-10-18T03:49:35.504Z,5.64
2022-10-18T03:50:37.555Z,5.61
2022-10-18T03:51:39.577Z,5.53
2022-10-18T03:52:41.537Z,5.58
2022-10-18T03:53:45.031Z,5.58
2022-10-18T03:54:46.990Z,5.59
2022-10-18T03:55:53.429Z,5.54
2022-10-18T03:56:55.496Z,5.59
2022-10-18T03:57:57.690Z,5.62
2022-10-18T03:58:59.566Z,5.69
2022-10-18T04:00:01.471Z,5.72
2022-10-18T04:01:03.910Z,5.76
2022-10-18T04:02:05.848Z,5.79
2022-10-18T04:03:07.883Z,5.85
2022-10-18T04:04:09.779Z,5.90
2022-10-18T04:05:11.755Z,5.93
2022-10-18T04:06:14.198Z,5.94
2022-10-18T04:07:16.253Z,5.96
2022-10-18T04:08:18.729Z,5.99
2022-10-18T04:09:23.472Z,6.01
2022-10-18T04:10:25.656Z,6.06
2022-10-18T04:11:27.544Z,6.03
2022-10-18T04:12:29.990Z,6.07
2022-10-18T04:13:32.250Z,6.09
2022-10-18T04:14:34.120Z,6.12
2022-10-18T04:15:36.578Z,6.12
2022-10-18T04:16:38.576Z,6.12
2022-10-18T04:17:40.470Z,6.13
2022-10-18T04:18:42.380Z,6.14
2022-10-18T04:19:46.173Z,6.16
2022-10-18T04:20:48.435Z,6.20
2022-10-18T04:21:52.332Z,6.22
2022-10-18T04:22:54.354Z,6.06
2022-10-18T04:23:56.240Z,6.25
2022-10-18T04:24:58.153Z,6.24
2022-10-18T04:26:00.070Z,6.24
2022-10-18T04:27:01.938Z,6.23
2022-10-18T04:28:04.299Z,6.16
2022-10-18T04:29:06.226Z,6.11
2022-10-18T04:30:09.674Z,6.07
2022-10-18T04:31:12.870Z,5.90
2022-10-18T04:32:14.815Z,5.97
2022-10-18T04:33:17.463Z,5.88
2022-10-18T04:34:19.790Z,5.78
2022-10-18T04:35:21.709Z,5.78
2022-10-18T04:36:23.952Z,5.66
2022-10-18T04:37:25.849Z,5.65
2022-10-18T04:38:28.047Z,5.65
2022-10-18T04:39:30.285Z,5.68
2022-10-18T04:40:32.406Z,5.65
2022-10-18T04:41:34.285Z,5.74
2022-10-18T04:42:36.166Z,5.79
2022-10-18T04:43:38.070Z,5.83
2022-10-18T04:44:40.320Z,5.86
2022-10-18T04:45:46.884Z,5.87
2022-10-18T04:46:48.909Z,5.88
2022-10-18T04:47:50.810Z,5.91
2022-10-18T04:48:53.005Z,5.98
2022-10-18T04:49:54.908Z,5.99
2022-10-18T04:50:56.913Z,6.03
2022-10-18T04:52:03.902Z,6.08
2022-10-18T04:53:05.975Z,5.73
2022-10-18T04:54:07.860Z,6.13
2022-10-18T04:55:10.030Z,6.16
2022-10-18T04:56:12.723Z,6.21
2022-10-18T04:57:14.593Z,6.29
2022-10-18T04:58:17.446Z,6.29
2022-10-18T04:59:19.627Z,6.35
2022-10-18T05:00:21.979Z,6.37
2022-10-18T05:01:28.069Z,6.37
2022-10-18T05:02:30.762Z,6.39
2022-10-18T05:03:33.986Z,6.43
2022-10-18T05:04:35.882Z,6.46
2022-10-18T05:06:00.082Z,6.51
2022-10-18T05:06:41.895Z,6.52
2022-10-18T05:07:43.776Z,6.55
2022-10-18T05:08:45.883Z,6.57
2022-10-18T05:09:47.821Z,6.59
2022-10-18T05:10:49.908Z,6.62
2022-10-18T05:11:51.794Z,6.64
2022-10-18T05:12:53.697Z,6.65
2022-10-18T05:13:55.851Z,6.66
2022-10-18T05:14:58.162Z,6.69
2022-10-18T05:16:00.041Z,6.73
2022-10-18T05:17:02.031Z,6.79
2022-10-18T05:18:04.069Z,6.82
2022-10-18T05:19:05.970Z,6.85
2022-10-18T05:20:09.555Z,6.88
2022-10-18T05:21:11.870Z,6.90
2022-10-18T05:22:13.926Z,6.92
2022-10-18T05:23:15.917Z,6.94
2022-10-18T05:24:18.241Z,7.00
2022-10-18T05:25:20.301Z,7.02
2022-10-18T05:26:22.800Z,7.04
2022-10-18T05:27:28.272Z,7.10
2022-10-18T05:28:45.900Z,7.17
2022-10-18T05:29:34.345Z,7.21
2022-10-18T05:30:40.307Z,7.24
2022-10-18T05:31:42.233Z,7.32
2022-10-18T05:32:44.131Z,7.45
2022-10-18T05:33:46.360Z,7.54
2022-10-18T05:34:48.263Z,7.57
2022-10-18T05:35:50.145Z,7.60
2022-10-18T05:36:52.570Z,7.60
2022-10-18T05:37:54.471Z,7.68
2022-10-18T05:38:59.720Z,7.72
2022-10-18T05:40:00.890Z,7.72
2022-10-18T05:41:05.870Z,7.80
2022-10-18T05:42:08.136Z,7.87
2022-10-18T05:43:10.010Z,7.93
2022-10-18T05:44:11.907Z,7.94
2022-10-18T05:45:14.190Z,7.95
2022-10-18T05:46:16.460Z,7.97
2022-10-18T05:47:18.534Z,8.02
2022-10-18T05:48:20.810Z,8.10
2022-10-18T05:49:22.929Z,8.13
2022-10-18T05:50:25.323Z,8.18
2022-10-18T05:51:27.226Z,8.17
2022-10-18T05:52:29.375Z,8.19
2022-10-18T05:53:38.848Z,8.22
2022-10-18T05:54:35.714Z,8.27
2022-10-18T05:55:37.587Z,8.37
2022-10-18T05:56:40.280Z,8.37
2022-10-18T05:57:42.316Z,8.41
2022-10-18T05:58:46.101Z,8.37
2022-10-18T05:59:48.467Z,8.45
2022-10-18T06:00:50.679Z,8.48
2022-10-18T06:01:52.539Z,8.48
2022-10-18T06:02:58.224Z,8.33
2022-10-18T06:09:22.596Z,8.70
2022-10-18T06:10:25.160Z,8.63
2022-10-18T06:11:29.338Z,8.68
2022-10-18T06:12:31.627Z,8.78
2022-10-18T06:13:34.018Z,8.83
2022-10-18T06:14:37.069Z,8.91
2022-10-18T06:15:39.044Z,9.04
2022-10-18T06:16:41.057Z,9.15
2022-10-18T06:17:42.944Z,9.28
2022-10-18T06:18:49.350Z,9.45
2022-10-18T06:19:51.451Z,9.58
2022-10-18T06:20:57.956Z,9.70
2022-10-18T06:22:00.008Z,9.81
2022-10-18T06:23:01.882Z,9.94
2022-10-18T06:24:04.801Z,10.12
2022-10-18T06:25:07.786Z,10.19
2022-10-18T06:26:10.935Z,10.39
2022-10-18T06:27:12.830Z,10.54
2022-10-18T06:28:14.893Z,10.74
2022-10-18T06:29:16.853Z,10.82
2022-10-18T06:30:19.050Z,11.04
2022-10-18T06:31:20.945Z,10.91
2022-10-18T06:32:22.815Z,11.00
2022-10-18T06:33:25.281Z,11.17
2022-10-18T06:34:27.195Z,11.05
2022-10-18T06:35:29.164Z,11.06
2022-10-18T06:36:31.307Z,11.24
2022-10-18T06:37:33.620Z,11.23
2022-10-18T06:38:36.129Z,11.40
2022-10-18T06:39:38.281Z,11.43
2022-10-18T06:40:40.371Z,11.38
2022-10-18T06:41:42.387Z,11.47
2022-10-18T06:42:50.927Z,11.54
2022-10-18T06:43:50.777Z,11.65
2022-10-18T06:44:52.836Z,11.66
2022-10-18T06:45:55.210Z,11.76
2022-10-18T06:46:57.202Z,11.54
2022-10-18T06:47:59.177Z,11.63
2022-10-18T06:49:01.072Z,11.70
2022-10-18T06:50:03.653Z,11.58
2022-10-18T06:51:07.315Z,11.69
2022-10-18T06:52:09.251Z,11.83
2022-10-18T06:53:11.384Z,11.99
2022-10-18T06:54:18.110Z,12.06
2022-10-18T06:55:18.301Z,12.05
2022-10-18T06:56:20.586Z,12.00
2022-10-18T06:57:22.638Z,12.11
2022-10-18T06:58:24.634Z,12.24
2022-10-18T06:59:28.975Z,12.25
2022-10-18T07:00:31.607Z,12.37
2022-10-18T07:01:33.581Z,12.56
2022-10-18T07:02:35.518Z,12.45
2022-10-18T07:03:37.627Z,12.46
2022-10-18T07:04:39.542Z,12.55
2022-10-18T07:05:41.459Z,12.49
2022-10-18T07:06:43.554Z,12.46
2022-10-18T07:07:45.483Z,12.46
2022-10-18T07:08:49.226Z,12.53
2022-10-18T07:09:51.168Z,12.44
2022-10-18T07:10:53.177Z,12.56
2022-10-18T07:11:55.132Z,12.61
2022-10-18T07:13:13.717Z,12.61
2022-10-18T07:14:02.279Z,12.79
2022-10-18T07:15:09.101Z,13.05
2022-10-18T07:16:15.668Z,13.20
2022-10-18T07:17:16.879Z,12.85
2022-10-18T07:18:18.931Z,12.92
2022-10-18T07:19:23.874Z,12.89
2022-10-18T07:20:25.993Z,13.05
2022-10-18T07:21:28.240Z,13.14
2022-10-18T07:22:30.546Z,13.12
2022-10-18T07:23:36.509Z,13.42
2022-10-18T07:24:38.718Z,13.31
2022-10-18T07:25:40.758Z,13.30
2022-10-18T07:26:45.919Z,13.62
2022-10-18T07:27:48.075Z,13.64
2022-10-18T07:28:54.051Z,13.73
2022-10-18T07:29:56.207Z,13.88
2022-10-18T07:31:06.966Z,13.90
2022-10-18T07:32:08.929Z,13.76
2022-10-18T07:33:11.017Z,14.02
2022-10-18T07:34:13.481Z,14.15
2022-10-18T07:35:15.868Z,14.27
2022-10-18T07:36:18.668Z,14.24
2022-10-18T07:37:26.590Z,14.14
2022-10-18T07:38:26.332Z,14.04
2022-10-18T07:39:30.791Z,14.22
2022-10-18T07:40:33.166Z,13.87
2022-10-18T07:41:35.449Z,14.05
2022-10-18T07:42:37.533Z,14.01
2022-10-18T07:43:45.589Z,14.16
2022-10-18T07:44:47.541Z,14.26
2022-10-18T07:45:55.687Z,14.32
2022-10-18T07:46:57.684Z,14.33
2022-10-18T07:47:59.582Z,14.40
2022-10-18T07:49:01.454Z,14.43
2022-10-18T07:51:17.587Z,14.64
2022-10-18T07:52:19.555Z,14.62
2022-10-18T07:53:21.479Z,14.67
2022-10-18T07:54:23.586Z,14.58
2022-10-18T07:55:25.580Z,14.66
2022-10-18T07:56:27.952Z,14.65
2022-10-18T07:57:30.382Z,14.63
2022-10-18T07:58:33.887Z,14.72
2022-10-18T07:59:35.795Z,14.64
2022-10-18T08:00:40.999Z,14.76
2022-10-18T08:01:43.133Z,14.76
2022-10-18T08:02:45.386Z,14.87
2022-10-18T08:03:47.272Z,14.67
2022-10-18T08:04:49.359Z,14.77
2022-10-18T08:05:53.164Z,14.73
2022-10-18T08:06:55.299Z,14.81
2022-10-18T08:07:57.228Z,14.81
2022-10-18T08:08:59.264Z,14.69
2022-10-18T08:10:01.145Z,14.80
2022-10-18T08:12:19.684Z,14.93
2022-10-18T08:13:21.835Z,14.84
2022-10-18T08:14:23.726Z,14.91
2022-10-18T08:15:25.814Z,14.96
2022-10-18T08:16:28.775Z,14.82
2022-10-18T08:17:31.260Z,14.96
2022-10-18T08:18:34.204Z,14.97
2022-10-18T08:19:36.122Z,14.95
2022-10-18T08:20:44.229Z,14.97
2022-10-18T08:21:46.208Z,14.95
2022-10-18T08:22:50.244Z,15.03
2022-10-18T08:23:52.863Z,15.08
2022-10-18T08:24:55.032Z,15.14
2022-10-18T08:26:03.894Z,15.13
2022-10-18T08:27:05.876Z,15.18
2022-10-18T08:28:07.860Z,15.20
2022-10-18T08:29:21.377Z,15.30
2022-10-18T08:30:15.441Z,15.39
2022-10-18T08:31:18.459Z,15.47
2022-10-18T08:32:20.506Z,15.50
2022-10-18T08:33:23.119Z,15.26
2022-10-18T08:34:25.096Z,15.29
2022-10-18T08:35:27.307Z,15.42
2022-10-18T08:36:29.283Z,15.46
2022-10-18T08:37:32.151Z,15.55
2022-10-18T08:38:36.268Z,15.59
2022-10-18T08:39:38.400Z,15.59
2022-10-18T08:40:43.885Z,15.58
2022-10-18T08:43:23.443Z,15.78
2022-10-18T08:44:28.916Z,15.60
2022-10-18T08:45:42.952Z,15.71
2022-10-18T08:46:42.512Z,15.80
2022-10-18T08:47:47.874Z,15.81
2022-10-18T08:48:53.580Z,15.86
2022-10-18T08:50:02.291Z,15.86
2022-10-18T08:51:08.007Z,15.87
2022-10-18T08:52:25.500Z,15.87
2022-10-18T08:53:31.825Z,15.94
2022-10-18T08:54:38.754Z,15.84
2022-10-18T08:55:53.788Z,16.02
2022-10-18T08:57:02.114Z,16.14
2022-10-18T08:58:10.339Z,15.83
2022-10-18T08:59:13.220Z,16.22
2022-10-18T09:00:21.269Z,16.30
2022-10-18T09:01:42.346Z,16.33
2022-10-18T09:04:19.531Z,16.46
2022-10-18T09:05:31.247Z,16.34
2022-10-18T09:07:07.560Z,16.39
2022-10-18T09:08:16.395Z,16.44
2022-10-18T09:09:45.173Z,16.51
2022-10-18T09:11:03.428Z,16.51
2022-10-18T09:12:25.912Z,16.64
2022-10-18T09:13:48.478Z,16.64
2022-10-18T09:14:54.174Z,16.62
2022-10-18T09:16:11.876Z,16.69
2022-10-18T09:17:23.290Z,16.65
2022-10-18T09:18:38.103Z,16.66
2022-10-18T09:20:04.999Z,16.69
2022-10-18T09:21:22.454Z,16.69
2022-10-18T09:22:34.328Z,16.72
2022-10-18T09:23:57.089Z,16.70
2022-10-18T09:25:08.882Z,16.71
2022-10-18T09:26:21.461Z,16.74
2022-10-18T09:27:27.187Z,16.80
2022-10-18T09:28:49.834Z,16.85
2022-10-18T09:29:55.713Z,16.88
2022-10-18T09:31:13.724Z,16.95
2022-10-18T09:32:44.892Z,16.95
2022-10-18T09:34:02.518Z,16.96
2022-10-18T09:35:23.105Z,17.22
2022-10-18T09:36:28.928Z,17.40
2022-10-18T09:37:33.928Z,17.47
2022-10-18T09:38:45.846Z,17.42
2022-10-18T09:39:49.980Z,17.46
2022-10-18T09:40:55.911Z,17.40
2022-10-18T09:43:15.283Z,17.66
2022-10-18T09:44:37.957Z,17.68
2022-10-18T09:45:43.093Z,17.72
2022-10-18T09:46:51.732Z,17.66
2022-10-18T09:48:03.250Z,17.62
2022-10-18T09:49:29.049Z,17.65
2022-10-18T09:50:46.514Z,17.77
2022-10-18T09:51:50.338Z,17.81
2022-10-18T09:53:18.422Z,17.88
2022-10-18T09:54:36.297Z,17.95
2022-10-18T09:55:42.091Z,18.01
2022-10-18T09:56:48.040Z,18.15
2022-10-18T09:57:53.804Z,18.07
2022-10-18T09:58:55.840Z,18.15
2022-10-18T10:00:00.800Z,18.33
2022-10-18T10:01:03.499Z,18.26
2022-10-18T10:02:06.513Z,18.15
2022-10-18T10:03:12.089Z,18.37
2022-10-18T10:04:14.019Z,18.43
2022-10-18T10:05:15.952Z,18.25
2022-10-18T10:06:30.076Z,18.35
2022-10-18T10:07:39.148Z,18.45
2022-10-18T10:08:45.177Z,18.53
2022-10-18T10:09:50.589Z,18.45
2022-10-18T10:10:53.630Z,18.35
2022-10-18T10:11:56.814Z,18.03
2022-10-18T10:13:17.242Z,18.41
2022-10-18T10:14:28.079Z,18.44
2022-10-18T10:15:35.299Z,18.41
2022-10-18T10:16:37.980Z,18.54
2022-10-18T10:17:42.762Z,18.65
2022-10-18T10:18:48.447Z,18.59
2022-10-18T10:20:16.971Z,18.64
2022-10-18T10:21:21.749Z,18.64
2022-10-18T10:22:33.656Z,18.63
2022-10-18T10:23:39.576Z,18.63
2022-10-18T10:24:53.701Z,18.85
2022-10-18T10:25:59.417Z,18.86
2022-10-18T10:27:05.269Z,18.90
2022-10-18T10:28:19.747Z,19.20
2022-10-18T10:29:48.801Z,19.28
2022-10-18T10:30:51.237Z,19.07
2022-10-18T10:32:03.742Z,18.98
2022-10-18T10:33:08.586Z,19.08
2022-10-18T10:34:17.096Z,18.95
2022-10-18T10:35:33.985Z,18.92
2022-10-18T10:36:27.409Z,18.99
2022-10-18T10:37:36.326Z,19.11
2022-10-18T10:38:38.457Z,18.97
2022-10-18T10:39:42.867Z,19.00
2022-10-18T10:40:49.501Z,18.97
2022-10-18T10:41:54.549Z,19.07
2022-10-18T10:43:36.418Z,19.25
2022-10-18T10:44:30.327Z,19.24
2022-10-18T10:45:33.934Z,19.10
2022-10-18T10:46:38.188Z,19.32
2022-10-18T10:47:40.415Z,18.91
2022-10-18T10:48:49.288Z,19.19
2022-10-18T10:49:51.495Z,19.02
2022-10-18T10:50:57.567Z,19.06
2022-10-18T10:52:09.035Z,18.97
2022-10-18T10:53:09.892Z,18.98
2022-10-18T10:54:17.251Z,18.96
2022-10-18T10:55:35.025Z,19.17
2022-10-18T10:57:51.697Z,19.31
2022-10-18T10:58:57.158Z,19.25
2022-10-18T10:59:59.456Z,19.23
2022-10-18T11:01:17.267Z,19.18
2022-10-18T11:02:32.267Z,19.22
2022-10-18T11:03:34.791Z,19.16
2022-10-18T11:04:36.857Z,19.07
2022-10-18T11:05:45.218Z,19.15
2022-10-18T11:06:57.064Z,19.07
2022-10-18T11:08:02.302Z,19.09
2022-10-18T11:09:07.682Z,19.27
2022-10-18T11:10:13.654Z,19.21
2022-10-18T11:11:23.301Z,19.43
2022-10-18T11:12:41.509Z,19.35
2022-10-18T11:13:56.952Z,19.44
2022-10-18T11:15:00.912Z,19.46
2022-10-18T11:16:15.518Z,19.45
2022-10-18T11:17:21.411Z,19.67
2022-10-18T11:18:36.157Z,19.64
2022-10-18T11:19:41.924Z,19.50
2022-10-18T11:20:50.678Z,19.47
2022-10-18T11:21:53.589Z,19.72
2022-10-18T11:23:01.839Z,19.63
2022-10-18T11:24:07.731Z,19.65
2022-10-18T11:25:12.904Z,19.58
2022-10-18T11:26:18.805Z,19.70
2022-10-18T11:29:17.724Z,19.56
2022-10-18T11:30:46.240Z,19.53
2022-10-18T11:32:25.827Z,19.44
2022-10-18T11:34:07.543Z,19.39
2022-10-18T11:35:27.863Z,19.65
2022-10-18T11:36:46.197Z,19.59
2022-10-18T11:37:54.329Z,19.61
2022-10-18T11:39:15.216Z,19.58
2022-10-18T11:40:37.861Z,19.50
2022-10-18T11:41:49.736Z,19.50
2022-10-18T11:44:51.538Z,19.56
2022-10-18T11:46:06.280Z,19.45
2022-10-18T11:47:21.027Z,19.63
2022-10-18T11:48:43.283Z,19.81
2022-10-18T11:49:55.118Z,19.62
2022-10-18T11:51:23.754Z,19.56
2022-10-18T11:54:19.128Z,19.92
2022-10-18T11:55:49.483Z,19.64
2022-10-18T11:57:12.116Z,19.49
2022-10-18T11:58:43.905Z,19.68
2022-10-18T11:59:58.089Z,19.60
2022-10-18T12:01:06.876Z,19.66
2022-10-18T12:03:56.044Z,19.70
2022-10-18T12:06:18.296Z,19.64
2022-10-18T12:07:27.754Z,19.59
2022-10-18T12:08:42.716Z,19.93
2022-10-18T12:11:09.461Z,20.05
2022-10-18T12:12:02.570Z,19.84
2022-10-18T12:13:07.505Z,19.69
2022-10-18T12:14:28.517Z,19.59
2022-10-18T12:15:34.274Z,19.50
2022-10-18T12:16:51.030Z,19.46
2022-10-18T12:17:57.398Z,19.44
2022-10-18T12:19:03.298Z,19.46
2022-10-18T12:20:31.113Z,19.47
2022-10-18T12:21:33.945Z,19.42
2022-10-18T12:22:48.755Z,19.40
2022-10-18T12:23:54.398Z,19.57
2022-10-18T12:24:56.317Z,19.63
2022-10-18T12:26:04.576Z,19.71
2022-10-18T12:27:10.269Z,19.68
2022-10-18T12:28:28.509Z,19.66
2022-10-18T12:29:52.833Z,19.69
2022-10-18T12:30:58.703Z,19.74
2022-10-18T12:32:04.437Z,19.62
2022-10-18T12:33:27.228Z,19.63
2022-10-18T12:34:23.786Z,19.95
2022-10-18T12:35:29.218Z,19.85
2022-10-18T12:36:44.178Z,19.74
2022-10-18T12:38:08.300Z,19.94
2022-10-18T12:39:14.054Z,19.90
2022-10-18T12:41:32.105Z,20.04
2022-10-18T12:42:37.748Z,19.64
2022-10-18T12:43:39.859Z,19.76
2022-10-18T12:44:41.887Z,19.84
2022-10-18T12:45:53.342Z,19.74
2022-10-18T12:46:58.671Z,19.69
2022-10-18T12:48:03.858Z,19.52
2022-10-18T12:49:07.774Z,19.52
2022-10-18T12:52:00.864Z,19.78
2022-10-18T12:53:18.634Z,19.62
2022-10-18T12:55:45.866Z,19.83
2022-10-18T12:56:47.991Z,19.88
2022-10-18T12:57:59.226Z,19.73
2022-10-18T12:59:17.309Z,19.64
2022-10-18T13:00:32.786Z,20.03
2022-10-18T13:01:57.126Z,19.85
2022-10-18T13:03:15.145Z,19.79
2022-10-18T13:04:29.369Z,19.89
2022-10-18T13:05:53.523Z,19.71
2022-10-18T13:07:09.416Z,19.86
2022-10-18T13:09:33.610Z,19.72
2022-10-18T13:10:35.810Z,19.47
2022-10-18T13:11:37.701Z,19.51
2022-10-18T13:13:12.153Z,19.60
2022-10-18T13:14:18.223Z,19.71
2022-10-18T13:15:35.930Z,19.57
2022-10-18T13:16:44.448Z,19.68
2022-10-18T13:17:52.918Z,19.50
2022-10-18T13:19:18.564Z,19.50
2022-10-18T13:20:42.439Z,19.66
2022-10-18T13:22:06.686Z,19.51
2022-10-18T13:23:34.018Z,19.53
2022-10-18T13:24:46.252Z,19.51
2022-10-18T13:25:55.052Z,19.69
2022-10-18T13:27:36.720Z,19.48
2022-10-18T13:28:29.138Z,19.54
2022-10-18T13:29:43.474Z,19.42
2022-10-18T13:31:04.501Z,19.59
2022-10-18T13:33:39.094Z,19.63
2022-10-18T13:34:42.410Z,19.40
2022-10-18T13:35:59.895Z,19.46
2022-10-18T13:37:11.771Z,19.44
2022-10-18T13:38:42.139Z,19.40
2022-10-18T13:39:44.498Z,19.26
2022-10-18T13:41:01.417Z,19.42
2022-10-18T13:42:16.228Z,19.31
2022-10-18T13:43:54.304Z,19.58
2022-10-18T13:45:16.753Z,19.45
2022-10-18T13:46:24.444Z,19.28
2022-10-18T13:47:37.321Z,19.17
2022-10-18T13:48:52.860Z,19.14
2022-10-18T13:51:39.054Z,19.28
2022-10-18T13:52:55.787Z,19.22
2022-10-18T13:54:10.472Z,18.98
2022-10-18T13:55:53.450Z,19.12
2022-10-18T13:57:26.637Z,19.03
2022-10-18T13:58:35.806Z,18.86
2022-10-18T13:59:44.423Z,18.93
2022-10-18T14:01:09.576Z,18.74
2022-10-18T14:02:49.481Z,18.73
2022-10-18T14:03:58.683Z,18.58
2022-10-18T14:05:25.045Z,18.58
2022-10-18T14:06:28.683Z,18.62
2022-10-18T14:07:32.629Z,18.55
2022-10-18T14:08:38.447Z,18.57
2022-10-18T14:09:54.890Z,18.40
2022-10-18T14:11:12.011Z,18.45
2022-10-18T14:12:40.495Z,18.46
2022-10-18T14:13:49.226Z,18.34
2022-10-18T14:15:00.935Z,18.24
2022-10-18T14:16:08.683Z,18.22
2022-10-18T14:17:18.123Z,18.18
2022-10-18T14:18:23.918Z,18.12
2022-10-18T14:19:47.975Z,18.30
2022-10-18T14:21:12.444Z,18.28
2022-10-18T14:22:07.214Z,18.15
2022-10-18T14:23:16.898Z,18.08
2022-10-18T14:24:23.011Z,18.02
2022-10-18T14:25:31.594Z,18.00
2022-10-18T14:26:35.467Z,18.01
2022-10-18T14:27:37.588Z,17.97
2022-10-18T14:28:58.752Z,17.93
2022-10-18T14:29:44.675Z,17.87
2022-10-18T14:31:04.999Z,17.78
2022-10-18T14:32:10.667Z,17.74
2022-10-18T14:33:28.395Z,17.68
2022-10-18T14:34:30.551Z,17.71
2022-10-18T14:35:39.640Z,17.56
2022-10-18T14:36:40.132Z,17.67
2022-10-18T14:37:42.458Z,17.56
2022-10-18T14:38:56.972Z,17.53
2022-10-18T14:39:58.889Z,17.59
2022-10-18T14:41:15.593Z,17.50
2022-10-18T14:42:21.331Z,17.58
2022-10-18T14:43:23.324Z,17.44
2022-10-18T14:44:30.649Z,17.39
2022-10-18T14:45:32.933Z,17.28
2022-10-18T14:46:38.835Z,17.24
2022-10-18T14:47:40.760Z,17.21
2022-10-18T14:48:57.802Z,17.09
2022-10-18T14:49:59.719Z,17.01
2022-10-18T14:51:04.948Z,16.92
2022-10-18T14:52:20.398Z,16.91
2022-10-18T14:53:22.919Z,17.14
2022-10-18T14:55:42.074Z,17.16
2022-10-18T14:56:45.270Z,17.00
2022-10-18T14:57:47.266Z,16.92
2022-10-18T14:58:49.847Z,17.02
2022-10-18T14:59:54.655Z,16.98
2022-10-18T15:00:58.518Z,17.05
2022-10-18T15:02:03.224Z,17.01
2022-10-18T15:03:07.469Z,16.98
2022-10-18T15:04:12.187Z,16.93
2022-10-18T15:05:17.928Z,16.80
2022-10-18T15:06:20.636Z,16.73
2022-10-18T15:07:23.578Z,16.78
2022-10-18T15:08:37.681Z,16.86
2022-10-18T15:09:40.227Z,16.78